Randolph Air Force Base
KRND : now visible

Airfield :











YOU CAN JOIN US ON...

 
LOGIN :

Register | Disclaimer

   EN    FR    IT 

 









Legend :    VFR   Marginal VFR   IFR   Intensive IFR   Very Intensive IFR
Visi :
Ceiling :
>= 8 km
>= 3000ft
5 to 8 km
1000 to 3000 ft
1500m to 5 km
500 to 1000 ft
800 to 1500m
200 to 500 ft
< 800m
< 200 ft
Symbols :   Thunderstorms  Fog  Heavy snow  Heavy precipitations  Wind > 20 kt







- Airport Elevation : 761 ft


KRND - Randolph Air Force Base

CURRENT METAR :
  • 191021Z AUTO 16005KT 10SM BKN016 BKN021 26/24 A2996 RMK AO2 CIG 016V020 CIG 013 RWY33R SLP135

EXPIRED METARs :
  • 191016Z AUTO 16006KT 10SM SCT014 BKN020 26/24 A2996 RMK AO2 CIG 014V020 CIG 013 RWY33R SLP135
  • 191006Z AUTO 17006KT 10SM SCT014 26/24 A2996 RMK AO2 SLP135
  • 190956Z AUTO 17007KT 10SM BKN015 BKN020 27/24 A2996 RMK AO2 CIG 012 RWY33R SLP135 T02650241
  • 190856Z AUTO 17007KT 10SM OVC013 27/24 A2995 RMK AO2 SLP132 T02690243 55002
  • 190821Z AUTO 18008KT 10SM OVC014 27/24 A2994 RMK AO2 CIG 013 RWY33R SLP128
  • 190801Z AUTO 19006KT 10SM BKN015 27/24 A2994 RMK AO2 BKN V SCT CIG 014 RWY15R SLP128
  • 190756Z AUTO 18006KT 10SM SCT015 27/24 A2994 RMK AO2 SLP128 T02650241
  • 190741Z AUTO 17008KT 10SM SCT015 27/24 A2993 RMK AO2 SLP125

TAF TAF KRND
Valid from the 19 at 09:00 until the 20 at 15:00 UTC


190900Z 1909/2015 17009KT 9999 BKN015 QNH2993INS
TEMPO 1911/1915 SCT020
BECMG 1915/1916 16012KT 9999 FEW090 QNH2998INS
BECMG 1917/1918 15012G20KT 9999 FEW090 QNH2992INS
BECMG 2005/2006 17006KT 9999 SCT020 QNH2999INS
TEMPO 2011/2014 BKN010 TX37/1921Z TN26/1912Z
No reported NOTAMs for that airfield.



MET'MAP, your aeronautical weather chart ! - Copyright ORBIFLY December 2007 - Disclaimer

ORBIFLY MET'MAP TEAM :

Programming & Development : Alexandra Zaïnal
Concept & Development : Baudouin d'Aumeries
Co-Development & Prog : Marc-Olivier Méhu
Technical & hardware support : Manuel Goepfert

Contact : metmap@orbifly.com




SOURCES & CREDITS :

   NOAA       Earth
Advisory